createdAt,value
2023-04-10T00:02:33.325Z,101232.75
2023-04-10T00:05:41.760Z,101231.88
2023-04-10T00:08:59.802Z,101235.91
2023-04-10T00:12:07.820Z,101232.91
2023-04-10T00:15:16.226Z,101237.41
2023-04-10T00:18:24.762Z,101224.47
2023-04-10T00:21:33.687Z,101218.78
2023-04-10T00:24:41.724Z,101216.72
2023-04-10T00:27:56.735Z,101209.81
2023-04-10T00:31:05.594Z,101205.03
2023-04-10T00:34:20.780Z,101212.66
2023-04-10T00:37:29.963Z,101219.47
2023-04-10T00:40:45.193Z,101212.75
2023-04-10T00:43:55.033Z,101208.69
2023-04-10T00:47:05.202Z,101213.31
2023-04-10T00:50:13.786Z,101209.66
2023-04-10T00:53:28.730Z,101201.88
2023-04-10T00:56:30.752Z,101202.13
2023-04-10T00:59:48.844Z,101196.78
2023-04-10T01:02:57.510Z,101201.28
2023-04-10T01:06:34.761Z,101201.28
2023-04-10T01:09:57.781Z,101200.63
2023-04-10T01:13:21.927Z,101193.09
2023-04-10T01:16:45.048Z,101197.78
2023-04-10T01:20:08.777Z,101193.53
2023-04-10T01:23:41.134Z,101189.16
2023-04-10T01:30:44.112Z,101194.13
2023-04-10T01:33:58.629Z,101189.66
2023-04-10T01:37:10.895Z,101185.38
2023-04-10T01:40:44.003Z,101188.78
2023-04-10T01:43:49.947Z,101181.12
2023-04-10T01:47:07.205Z,101186.72
2023-04-10T01:50:10.867Z,101189.59
2023-04-10T01:53:26.781Z,101193.47
2023-04-10T01:56:29.246Z,101187.16
2023-04-10T01:59:49.223Z,101187.88
2023-04-10T02:02:51.131Z,101186.19
2023-04-10T02:06:21.157Z,101194.69
2023-04-10T02:09:28.819Z,101181.88
2023-04-10T02:12:51.800Z,101193.63
2023-04-10T02:16:04.202Z,101190.84
2023-04-10T02:19:13.062Z,101191.28
2023-04-10T02:22:22.797Z,101191.28
2023-04-10T02:25:32.498Z,101177.81
2023-04-10T02:28:40.834Z,101182.00
2023-04-10T02:31:56.791Z,101187.22
2023-04-10T02:35:05.553Z,101180.38
2023-04-10T02:38:26.786Z,101187.03
2023-04-10T02:41:43.838Z,101180.31
2023-04-10T02:45:04.057Z,101176.78
2023-04-10T02:48:06.889Z,101163.94
2023-04-10T02:51:22.339Z,101170.47
2023-04-10T02:54:37.826Z,101163.13
2023-04-10T02:57:52.803Z,101163.75
2023-04-10T03:01:01.860Z,101157.66
2023-04-10T03:04:16.841Z,101159.69
2023-04-10T03:07:18.560Z,101153.41
2023-04-10T03:10:32.837Z,101159.03
2023-04-10T03:13:40.791Z,101156.59
2023-04-10T03:16:55.802Z,101158.63
2023-04-10T03:20:05.070Z,101163.47
2023-04-10T03:23:21.130Z,101156.97
2023-04-10T03:26:29.817Z,101150.94
2023-04-10T03:29:38.705Z,101161.94
2023-04-10T03:32:46.862Z,101154.72
2023-04-10T03:35:55.668Z,101160.06
2023-04-10T03:39:06.785Z,101160.44
2023-04-10T03:42:15.494Z,101157.38
2023-04-10T03:45:23.886Z,101166.44
2023-04-10T03:48:39.948Z,101167.09
2023-04-10T03:51:41.717Z,101171.91
2023-04-10T03:54:57.862Z,101165.59
2023-04-10T03:58:07.390Z,101167.50
2023-04-10T04:01:35.925Z,101173.28
2023-04-10T04:04:45.587Z,101173.28
2023-04-10T04:07:53.843Z,101178.94
2023-04-10T04:11:15.137Z,101175.06
2023-04-10T04:14:27.334Z,101176.53
2023-04-10T04:17:41.866Z,101179.87
2023-04-10T04:20:52.564Z,101175.31
2023-04-10T04:24:08.862Z,101197.44
2023-04-10T04:27:22.205Z,101193.63
2023-04-10T04:30:30.443Z,101192.47
2023-04-10T04:33:58.180Z,101185.72
2023-04-10T04:37:08.608Z,101190.09
2023-04-10T04:40:16.837Z,101191.84
2023-04-10T04:43:26.169Z,101187.28
2023-04-10T04:46:34.830Z,101202.22
2023-04-10T04:49:53.543Z,101205.12
2023-04-10T04:53:01.449Z,101198.41
2023-04-10T04:56:15.989Z,101215.19
2023-04-10T04:59:17.633Z,101215.31
2023-04-10T05:02:31.990Z,101213.41
2023-04-10T05:05:43.130Z,101216.16
2023-04-10T05:08:57.960Z,101215.31
2023-04-10T05:12:00.632Z,101220.34
2023-04-10T05:15:15.895Z,101227.69
2023-04-10T05:18:25.571Z,101224.91
2023-04-10T05:21:33.743Z,101233.75
2023-04-10T05:24:48.937Z,101234.47
2023-04-10T05:27:51.614Z,101227.88
2023-04-10T05:31:06.913Z,101225.69
2023-04-10T05:34:11.965Z,101218.81
2023-04-10T05:37:44.083Z,101219.47
2023-04-10T05:40:58.663Z,101226.34
2023-04-10T05:44:13.089Z,101230.72
2023-04-10T05:47:22.927Z,101230.97
2023-04-10T05:50:31.863Z,101231.88
2023-04-10T05:53:39.846Z,101235.69
2023-04-10T05:56:49.061Z,101218.00
2023-04-10T05:59:57.890Z,101220.00
2023-04-10T06:03:06.720Z,101222.84
2023-04-10T06:06:16.653Z,101228.00
2023-04-10T06:09:31.578Z,101223.41
2023-04-10T06:12:33.636Z,101224.66
2023-04-10T06:15:48.508Z,101228.22
2023-04-10T06:18:51.303Z,101229.00
2023-04-10T06:22:06.907Z,101223.19
2023-04-10T06:25:15.912Z,101232.84
2023-04-10T06:28:24.813Z,101213.47
2023-04-10T06:31:32.986Z,101205.44
2023-04-10T06:34:48.763Z,101223.25
2023-04-10T06:37:57.252Z,101230.94
2023-04-10T06:41:13.174Z,101237.37
2023-04-10T06:44:22.661Z,101226.00
2023-04-10T06:47:30.902Z,101230.28
2023-04-10T06:50:41.338Z,101230.69
2023-04-10T06:53:55.956Z,101233.47
2023-04-10T06:56:57.868Z,101218.09
2023-04-10T07:00:18.167Z,101227.22
2023-04-10T07:03:19.962Z,101214.56
2023-04-10T07:06:35.908Z,101209.72
2023-04-10T07:13:19.983Z,101220.37
2023-04-10T07:16:27.950Z,101214.06
2023-04-10T07:19:42.961Z,101219.16
2023-04-10T07:22:44.652Z,101216.91
2023-04-10T07:26:02.028Z,101210.03
2023-04-10T07:29:17.473Z,101210.94
2023-04-10T07:32:34.384Z,101204.38
2023-04-10T07:35:36.247Z,101195.22
2023-04-10T07:38:50.977Z,101196.25
2023-04-10T07:42:07.782Z,101173.25
2023-04-10T07:45:19.250Z,101195.53
2023-04-10T07:48:37.252Z,101184.59
2023-04-10T07:51:43.536Z,101184.72
2023-04-10T07:55:02.155Z,101189.72
2023-04-10T07:58:11.194Z,101195.34
2023-04-10T08:01:19.684Z,101185.63
2023-04-10T08:04:34.456Z,101185.91
2023-04-10T08:07:49.657Z,101178.94
2023-04-10T08:10:51.573Z,101158.22
2023-04-10T08:14:08.255Z,101182.56
2023-04-10T08:17:16.697Z,101179.75
2023-04-10T08:20:32.953Z,101180.13
2023-04-10T08:23:40.915Z,101177.62
2023-04-10T08:26:55.953Z,101181.34
2023-04-10T08:30:04.541Z,101176.59
2023-04-10T08:33:12.861Z,101177.31
2023-04-10T08:36:22.944Z,101174.06
2023-04-10T08:39:45.974Z,101173.88
2023-04-10T08:43:00.978Z,101169.50
2023-04-10T08:46:10.098Z,101166.94
2023-04-10T08:49:26.970Z,101160.94
2023-04-10T08:52:45.747Z,101162.97
2023-04-10T08:55:53.956Z,101158.91
2023-04-10T08:59:03.519Z,101168.19
2023-04-10T09:02:18.052Z,101160.94
2023-04-10T09:05:27.925Z,101164.16
2023-04-10T09:08:42.993Z,101147.25
2023-04-10T09:11:57.953Z,101151.72
2023-04-10T09:18:43.158Z,101128.22
2023-04-10T09:21:57.310Z,101145.47
2023-04-10T09:25:12.217Z,101133.34
2023-04-10T09:28:20.027Z,101139.81
2023-04-10T09:31:39.052Z,101138.97
2023-04-10T09:35:00.125Z,101132.22
2023-04-10T09:38:24.520Z,101126.16
2023-04-10T09:41:56.987Z,101119.91
2023-04-10T09:45:06.203Z,101118.87
2023-04-10T09:48:21.057Z,101114.94
2023-04-10T09:51:31.239Z,101117.41
2023-04-10T09:54:46.220Z,101108.91
2023-04-10T09:57:55.281Z,101113.28
2023-04-10T10:01:10.010Z,101112.13
2023-04-10T10:07:45.110Z,101096.31
2023-04-10T10:11:05.791Z,101100.53
2023-04-10T10:14:17.778Z,101096.19
2023-04-10T10:17:30.068Z,101093.34
2023-04-10T10:20:50.983Z,101101.16
2023-04-10T10:24:08.360Z,101093.94
2023-04-10T10:27:10.767Z,101104.81
2023-04-10T10:30:30.254Z,101092.62
2023-04-10T10:33:39.937Z,101092.09
2023-04-10T10:36:48.115Z,101081.44
2023-04-10T10:40:14.039Z,101085.00
2023-04-10T10:43:27.309Z,101090.44
2023-04-10T10:46:59.070Z,101081.59
2023-04-10T10:50:10.874Z,101079.91
2023-04-10T10:53:36.620Z,101079.06
2023-04-10T10:56:46.047Z,101081.94
2023-04-10T10:59:59.782Z,101061.97
2023-04-10T11:03:37.179Z,101076.53
2023-04-10T11:07:08.125Z,101079.25
2023-04-10T11:10:17.664Z,101057.91
2023-04-10T11:13:37.216Z,101078.06
2023-04-10T11:16:45.601Z,101072.13
2023-04-10T11:20:06.075Z,101067.25
2023-04-10T11:23:17.246Z,101067.06
2023-04-10T11:26:38.298Z,101063.66
2023-04-10T11:33:27.909Z,101066.69
2023-04-10T11:36:30.748Z,101068.22
2023-04-10T11:39:46.065Z,101071.78
2023-04-10T11:43:19.319Z,101057.72
2023-04-10T11:46:51.077Z,101065.19
2023-04-10T11:49:54.069Z,101062.66
2023-04-10T11:53:27.597Z,101066.22
2023-04-10T11:56:37.874Z,101077.37
2023-04-10T12:00:11.738Z,101057.25
2023-04-10T12:03:34.547Z,101070.94
2023-04-10T12:06:57.027Z,101068.56
2023-04-10T12:10:06.099Z,101078.56
2023-04-10T12:13:26.557Z,101068.94
2023-04-10T12:17:11.766Z,101059.94
2023-04-10T12:20:22.099Z,101066.06
2023-04-10T12:23:38.491Z,101059.91
2023-04-10T12:30:16.068Z,101043.84
2023-04-10T12:33:34.527Z,101043.50
2023-04-10T12:40:34.996Z,101029.78
2023-04-10T12:44:18.319Z,101004.72
2023-04-10T12:47:35.141Z,100999.16
2023-04-10T12:50:57.402Z,100993.75
2023-04-10T12:54:13.120Z,100989.81
2023-04-10T12:57:27.053Z,100985.53
2023-04-10T13:00:43.849Z,100988.25
2023-04-10T13:03:59.032Z,100976.50
2023-04-10T13:07:01.195Z,100967.56
2023-04-10T13:10:16.147Z,100968.50
2023-04-10T13:13:21.158Z,100969.50
2023-04-10T13:16:36.276Z,100959.63
2023-04-10T13:19:38.169Z,100955.87
2023-04-10T13:22:53.137Z,100949.69
2023-04-10T13:25:56.357Z,100942.06
2023-04-10T13:32:50.234Z,100932.28
2023-04-10T13:36:07.238Z,100937.84
2023-04-10T13:39:16.184Z,100927.34
2023-04-10T13:42:40.540Z,100916.53
2023-04-10T13:45:44.161Z,100915.81
2023-04-10T13:49:01.326Z,100911.09
2023-04-10T13:52:16.181Z,100900.81
2023-04-10T13:55:32.138Z,100901.13
2023-04-10T13:58:42.182Z,100900.22
2023-04-10T14:01:57.236Z,100891.97
2023-04-10T14:05:05.165Z,100889.69
2023-04-10T14:08:30.998Z,100885.28
2023-04-10T14:11:39.666Z,100881.22
2023-04-10T14:14:51.176Z,100873.38
2023-04-10T14:18:00.232Z,100865.53
2023-04-10T14:21:13.481Z,100861.81
2023-04-10T14:24:24.141Z,100848.19
2023-04-10T14:27:34.121Z,100848.78
2023-04-10T14:30:44.565Z,100843.97
2023-04-10T14:33:53.813Z,100843.91
2023-04-10T14:37:08.201Z,100831.41
2023-04-10T14:40:13.091Z,100827.31
2023-04-10T14:43:35.182Z,100833.81
2023-04-10T14:46:36.911Z,100821.09
2023-04-10T14:49:54.488Z,100826.31
2023-04-10T14:53:12.244Z,100819.66
2023-04-10T14:56:23.938Z,100817.44
2023-04-10T14:59:40.746Z,100814.91
2023-04-10T15:02:57.188Z,100812.22
2023-04-10T15:06:07.223Z,100796.50
2023-04-10T15:09:23.219Z,100796.41
2023-04-10T15:12:32.416Z,100801.47
2023-04-10T15:15:40.744Z,100798.06
2023-04-10T15:18:54.163Z,100793.91
2023-04-10T15:22:10.200Z,100784.09
2023-04-10T15:25:20.578Z,100779.37
2023-04-10T15:28:36.476Z,100777.31
2023-04-10T15:31:38.264Z,100777.13
2023-04-10T15:34:53.413Z,100767.69
2023-04-10T15:37:55.326Z,100765.81
2023-04-10T15:41:18.197Z,100758.03
2023-04-10T15:44:33.204Z,100761.47
2023-04-10T15:47:35.627Z,100764.03
2023-04-10T15:50:51.230Z,100765.06
2023-04-10T15:54:00.476Z,100760.97
2023-04-10T16:00:31.217Z,100753.78
2023-04-10T16:03:41.037Z,100746.47
2023-04-10T16:06:50.380Z,100744.78
2023-04-10T16:10:05.509Z,100746.94
2023-04-10T16:13:07.648Z,100739.78
2023-04-10T16:16:25.152Z,100734.53
2023-04-10T16:19:50.263Z,100727.44
2023-04-10T16:23:06.369Z,100730.19
2023-04-10T16:26:09.720Z,100730.53
2023-04-10T16:29:24.944Z,100728.22
2023-04-10T16:32:33.283Z,100718.94
2023-04-10T16:35:48.533Z,100727.28
2023-04-10T16:38:57.380Z,100716.16
2023-04-10T16:42:12.279Z,100711.91
2023-04-10T16:45:15.039Z,100716.16
2023-04-10T16:48:29.498Z,100718.75
2023-04-10T16:51:38.326Z,100712.78
2023-04-10T16:54:48.543Z,100716.16
2023-04-10T16:58:19.452Z,100715.13
2023-04-10T17:01:27.907Z,100711.94
2023-04-10T17:04:46.047Z,100716.03
2023-04-10T17:08:03.506Z,100700.97
2023-04-10T17:11:14.634Z,100703.03
2023-04-10T17:14:30.017Z,100699.41
2023-04-10T17:17:37.851Z,100715.28
2023-04-10T17:20:48.211Z,100722.59
2023-04-10T17:24:00.674Z,100714.28
2023-04-10T17:27:11.714Z,100715.13
2023-04-10T17:30:26.582Z,100718.56
2023-04-10T17:33:35.361Z,100717.41
2023-04-10T17:36:43.788Z,100718.59
2023-04-10T17:40:01.060Z,100719.63
2023-04-10T17:43:22.376Z,100730.59
2023-04-10T17:46:24.382Z,100729.25
2023-04-10T17:49:39.821Z,100729.09
2023-04-10T17:53:04.007Z,100738.06
2023-04-10T17:56:25.280Z,100743.84
2023-04-10T17:59:36.977Z,100744.88
2023-04-10T18:02:45.494Z,100745.37
2023-04-10T18:06:09.441Z,100746.78
2023-04-10T18:09:19.259Z,100734.50
2023-04-10T18:12:27.975Z,100739.56
2023-04-10T18:15:37.330Z,100732.47
2023-04-10T18:18:53.030Z,100753.78
2023-04-10T18:22:01.379Z,100747.84
2023-04-10T18:25:16.306Z,100747.72
2023-04-10T18:28:20.437Z,100755.47
2023-04-10T18:31:50.425Z,100745.81
2023-04-10T18:34:52.078Z,100746.50
2023-04-10T18:38:06.310Z,100752.25
2023-04-10T18:41:15.537Z,100743.81
2023-04-10T18:44:24.725Z,100747.66
2023-04-10T18:47:33.363Z,100749.22
2023-04-10T18:50:49.359Z,100755.63
2023-04-10T18:54:04.421Z,100761.38
2023-04-10T18:57:19.314Z,100761.88
2023-04-10T19:00:27.926Z,100756.31
2023-04-10T19:07:00.112Z,100777.53
2023-04-10T19:10:08.623Z,100788.75
2023-04-10T19:13:16.967Z,100792.16
2023-04-10T19:20:01.321Z,100791.75
2023-04-10T19:23:19.346Z,100792.59
2023-04-10T19:26:38.592Z,100788.38
2023-04-10T19:29:46.371Z,100777.19
2023-04-10T19:32:57.627Z,100778.53
2023-04-10T19:36:09.548Z,100776.47
2023-04-10T19:39:25.396Z,100775.25
2023-04-10T19:42:27.457Z,100775.87
2023-04-10T19:45:44.697Z,100767.66
2023-04-10T19:49:00.379Z,100772.66
2023-04-10T19:52:02.985Z,100773.31
2023-04-10T19:55:18.960Z,100769.75
2023-04-10T19:58:40.546Z,100755.75
2023-04-10T20:01:43.343Z,100764.62
2023-04-10T20:05:00.386Z,100767.16
2023-04-10T20:08:02.165Z,100761.38
2023-04-10T20:11:16.896Z,100752.06
2023-04-10T20:14:19.694Z,100752.88
2023-04-10T20:17:40.791Z,100747.94
2023-04-10T20:20:56.380Z,100747.66
2023-04-10T20:24:05.108Z,100752.03
2023-04-10T20:27:22.415Z,100749.91
2023-04-10T20:30:24.689Z,100755.97
2023-04-10T20:33:39.371Z,100749.78
2023-04-10T20:36:41.164Z,100745.91
2023-04-10T20:40:11.363Z,100734.25
2023-04-10T20:43:27.346Z,100740.44
2023-04-10T20:46:39.081Z,100735.13
2023-04-10T20:49:47.408Z,100720.72
2023-04-10T20:52:56.176Z,100726.78
2023-04-10T20:56:10.370Z,100724.38
2023-04-10T20:59:12.023Z,100731.06
2023-04-10T21:02:27.638Z,100736.09
2023-04-10T21:05:43.675Z,100728.31
2023-04-10T21:08:54.525Z,100733.91
2023-04-10T21:12:10.526Z,100725.97
2023-04-10T21:15:12.308Z,100733.22
2023-04-10T21:18:27.422Z,100734.69
2023-04-10T21:21:32.309Z,100728.75
2023-04-10T21:24:48.379Z,100724.00
2023-04-10T21:27:50.562Z,100733.62
2023-04-10T21:31:05.450Z,100717.06
2023-04-10T21:34:23.919Z,100719.75
2023-04-10T21:37:32.678Z,100710.31
2023-04-10T21:40:47.480Z,100702.13
2023-04-10T21:44:09.402Z,100722.53
2023-04-10T21:47:17.896Z,100715.75
2023-04-10T21:50:26.385Z,100711.13
2023-04-10T21:53:34.872Z,100709.13
2023-04-10T21:56:49.431Z,100701.22
2023-04-10T21:59:58.438Z,100700.69
2023-04-10T22:03:14.633Z,100700.75
2023-04-10T22:06:17.268Z,100694.84
2023-04-10T22:09:32.462Z,100690.91
2023-04-10T22:12:41.957Z,100693.75
2023-04-10T22:15:50.756Z,100682.75
2023-04-10T22:19:08.711Z,100684.75
2023-04-10T22:22:21.312Z,100686.75
2023-04-10T22:25:31.430Z,100690.44
2023-04-10T22:28:39.794Z,100686.19
2023-04-10T22:31:49.030Z,100685.34
2023-04-10T22:35:00.727Z,100685.97
2023-04-10T22:38:09.452Z,100689.88
2023-04-10T22:41:17.424Z,100676.88
2023-04-10T22:44:32.881Z,100678.34
2023-04-10T22:47:41.489Z,100679.50
2023-04-10T22:50:50.836Z,100670.47
2023-04-10T22:53:59.420Z,100673.16
2023-04-10T22:57:14.429Z,100667.41
2023-04-10T23:00:16.672Z,100673.78
2023-04-10T23:03:31.482Z,100668.09
2023-04-10T23:06:33.251Z,100665.56
2023-04-10T23:09:47.442Z,100670.84
2023-04-10T23:12:55.504Z,100669.72
2023-04-10T23:16:12.812Z,100663.06
2023-04-10T23:19:21.183Z,100665.03
2023-04-10T23:22:29.692Z,100665.34
2023-04-10T23:25:38.021Z,100657.87
2023-04-10T23:28:46.461Z,100648.31
2023-04-10T23:31:55.064Z,100658.06
2023-04-10T23:35:11.616Z,100643.34
2023-04-10T23:38:13.312Z,100652.25
2023-04-10T23:41:28.449Z,100643.25
2023-04-10T23:44:43.694Z,100652.75
2023-04-10T23:47:51.489Z,100644.81
2023-04-10T23:51:05.943Z,100633.41
2023-04-10T23:54:14.514Z,100645.53
2023-04-10T23:57:23.347Z,100637.78
